Time;durP1;ratioP1;P1;durP2;ratioP2;P2;SDS_P1;SDS_P2;PMS_P1;PMS_P2;Temp;Humidity;BMP_temperature;BMP_pressure;BME280_temperature;BME280_humidity;BME280_pressure;Samples;Min_cycle;Max_cycle;Signal;HPM_P1;HPM_P2
2021/12/09 00:00:14;;;;;;;10.48;5.93;;;1.70;99.90;;;;;;5054765;28;20055;-70
2021/12/09 00:02:40;;;;;;;8.95;5.50;;;1.80;99.90;;;;;;5088679;28;20060;-70
2021/12/09 00:05:11;;;;;;;11.02;5.53;;;1.80;99.90;;;;;;5082331;28;20060;-70
2021/12/09 00:07:37;;;;;;;11.63;5.40;;;1.90;99.90;;;;;;5054557;28;20519;-70
2021/12/09 00:10:07;;;;;;;14.45;5.60;;;1.80;99.90;;;;;;5058989;28;20040;-70
2021/12/09 00:12:32;;;;;;;12.27;6.25;;;1.80;99.90;;;;;;5055769;28;20079;-70
2021/12/09 00:14:58;;;;;;;13.20;5.72;;;1.80;99.90;;;;;;5078366;28;20049;-70
2021/12/09 00:17:25;;;;;;;8.73;5.32;;;1.80;99.90;;;;;;5083671;28;20030;-70
2021/12/09 00:19:51;;;;;;;10.77;5.72;;;1.90;99.90;;;;;;5057313;28;20088;-70
2021/12/09 00:22:17;;;;;;;9.30;6.00;;;1.80;99.90;;;;;;5088536;28;20080;-70
2021/12/09 00:24:43;;;;;;;11.95;6.18;;;1.80;99.90;;;;;;5042966;28;20196;-70
2021/12/09 00:27:09;;;;;;;16.38;6.13;;;1.80;99.90;;;;;;5058801;28;20076;-70
2021/12/09 00:29:35;;;;;;;13.40;6.45;;;1.70;99.90;;;;;;5057490;28;20112;-70
2021/12/09 00:32:01;;;;;;;12.23;5.95;;;1.70;99.90;;;;;;5039516;28;20040;-70
2021/12/09 00:34:32;;;;;;;12.27;6.90;;;2.00;99.90;;;;;;5084200;28;20045;-70
2021/12/09 00:37:23;;;;;;;13.20;6.80;;;1.70;99.90;;;;;;5041583;28;20059;-70
2021/12/09 00:39:50;;;;;;;15.68;7.68;;;1.70;99.90;;;;;;5054740;28;20106;-70
2021/12/09 00:42:17;;;;;;;13.30;6.50;;;1.70;99.90;;;;;;5040914;28;20045;-70
2021/12/09 00:44:43;;;;;;;13.48;6.80;;;1.70;99.90;;;;;;5059763;28;20055;-70
2021/12/09 00:47:09;;;;;;;15.40;7.75;;;1.80;99.90;;;;;;5058172;28;20041;-70
2021/12/09 00:49:34;;;;;;;12.02;7.43;;;1.80;99.90;;;;;;5059153;28;20052;-70
2021/12/09 00:52:00;;;;;;;10.18;6.32;;;1.70;99.90;;;;;;5032681;28;20077;-70
2021/12/09 00:54:27;;;;;;;16.40;6.63;;;1.70;99.90;;;;;;5072195;28;20064;-70
2021/12/09 00:56:52;;;;;;;14.98;6.80;;;1.70;99.90;;;;;;5057539;28;20389;-70
2021/12/09 00:59:18;;;;;;;15.30;6.97;;;1.70;99.90;;;;;;5056177;28;20052;-70
2021/12/09 01:01:44;;;;;;;11.73;6.78;;;1.60;99.90;;;;;;5055934;28;20064;-70
2021/12/09 01:04:10;;;;;;;12.40;6.00;;;1.60;99.90;;;;;;5054896;28;20048;-70
2021/12/09 01:06:36;;;;;;;14.15;6.57;;;1.70;99.90;;;;;;5039837;28;20432;-70
2021/12/09 01:09:03;;;;;;;11.57;6.80;;;1.70;99.90;;;;;;5054847;28;20072;-70
2021/12/09 01:11:29;;;;;;;11.48;6.32;;;1.70;99.90;;;;;;5059517;28;20139;-70
2021/12/09 01:13:55;;;;;;;14.13;7.07;;;1.70;99.90;;;;;;5039966;28;20519;-70
2021/12/09 01:16:20;;;;;;;13.65;6.90;;;1.70;99.90;;;;;;5091833;28;20179;-70
2021/12/09 01:18:46;;;;;;;15.68;7.45;;;1.70;99.90;;;;;;5037959;28;20036;-70
2021/12/09 01:21:13;;;;;;;17.23;7.30;;;1.60;99.90;;;;;;5056190;28;20057;-70
2021/12/09 01:23:40;;;;;;;18.67;6.82;;;1.70;99.90;;;;;;5092342;28;20049;-70
2021/12/09 01:26:07;;;;;;;12.30;7.68;;;1.60;99.90;;;;;;5038999;28;20064;-70
2021/12/09 01:28:44;;;;;;;13.50;6.00;;;1.60;99.90;;;;;;5058764;28;20051;-70
2021/12/09 01:31:10;;;;;;;11.93;6.35;;;1.60;99.90;;;;;;5041899;28;20073;-70
2021/12/09 01:33:37;;;;;;;15.48;7.55;;;1.60;99.90;;;;;;5057510;28;20052;-70
2021/12/09 01:36:05;;;;;;;15.02;5.85;;;1.60;99.90;;;;;;5058784;28;20040;-70
2021/12/09 01:38:32;;;;;;;12.13;6.75;;;1.70;99.90;;;;;;5044699;28;20059;-70
2021/12/09 01:40:59;;;;;;;14.02;6.63;;;2.90;99.90;;;;;;5092114;28;20041;-70
2021/12/09 01:43:25;;;;;;;10.60;6.18;;;1.60;99.90;;;;;;5054089;28;20033;-70
2021/12/09 01:46:11;;;;;;;14.25;6.90;;;1.60;99.90;;;;;;5038872;28;20499;-70
2021/12/09 01:48:38;;;;;;;12.18;6.43;;;1.50;99.90;;;;;;5036722;28;20128;-70
2021/12/09 01:51:05;;;;;;;9.73;6.07;;;1.60;99.90;;;;;;5052230;28;20069;-70
2021/12/09 01:53:30;;;;;;;12.43;6.82;;;1.50;99.90;;;;;;5058113;28;20044;-71
2021/12/09 01:56:01;;;;;;;11.98;6.85;;;1.50;99.90;;;;;;5040153;28;20056;-70
2021/12/09 01:58:27;;;;;;;15.32;6.63;;;1.40;99.90;;;;;;5059019;28;20087;-70
2021/12/09 02:00:53;;;;;;;13.00;6.60;;;1.40;99.90;;;;;;5090225;28;20053;-69
2021/12/09 02:03:20;;;;;;;15.63;6.90;;;1.40;99.90;;;;;;5042441;28;20052;-70
2021/12/09 02:05:46;;;;;;;13.80;6.70;;;1.50;99.90;;;;;;5090885;28;20045;-69
2021/12/09 02:08:17;;;;;;;12.43;6.43;;;1.40;99.90;;;;;;5038358;28;20075;-70
2021/12/09 02:10:45;;;;;;;13.13;6.72;;;1.40;99.90;;;;;;5057501;28;20028;-70
2021/12/09 02:13:12;;;;;;;11.40;6.25;;;1.40;99.90;;;;;;5038944;28;20029;-70
2021/12/09 02:15:39;;;;;;;13.15;6.28;;;1.40;99.90;;;;;;5060349;28;20040;-70
2021/12/09 02:18:08;;;;;;;11.88;6.47;;;1.50;99.90;;;;;;5041855;28;20033;-70
2021/12/09 02:20:35;;;;;;;12.38;6.80;;;1.40;99.90;;;;;;5057529;28;20043;-70
2021/12/09 02:23:07;;;;;;;15.35;7.30;;;1.50;99.90;;;;;;5057488;28;20037;-70
2021/12/09 02:25:33;;;;;;;10.68;6.65;;;1.50;99.90;;;;;;5055783;28;20060;-70
2021/12/09 02:27:59;;;;;;;15.82;7.25;;;1.50;99.90;;;;;;5057080;28;20045;-70
2021/12/09 02:30:25;;;;;;;11.43;6.95;;;1.40;99.90;;;;;;5039143;28;20049;-70
2021/12/09 02:32:51;;;;;;;10.80;6.30;;;1.40;99.90;;;;;;5087844;28;20100;-70
2021/12/09 02:35:17;;;;;;;15.50;6.88;;;1.40;99.90;;;;;;5039498;28;20051;-70
2021/12/09 02:37:44;;;;;;;12.23;6.50;;;1.40;99.90;;;;;;5040553;28;20040;-70
2021/12/09 02:40:11;;;;;;;10.52;6.15;;;1.40;99.90;;;;;;5025116;28;20068;-70
2021/12/09 02:42:37;;;;;;;11.13;7.13;;;1.50;99.90;;;;;;5054999;28;20037;-70
2021/12/09 02:45:05;;;;;;;14.98;6.82;;;1.40;99.90;;;;;;5041368;28;20080;-70
2021/12/09 02:47:31;;;;;;;11.60;6.80;;;1.40;99.90;;;;;;5080546;28;20041;-70
2021/12/09 02:49:57;;;;;;;12.38;6.78;;;1.40;99.90;;;;;;5093196;28;20044;-70
2021/12/09 02:52:23;;;;;;;11.32;6.80;;;1.50;99.90;;;;;;5081185;28;20136;-70
2021/12/09 02:54:49;;;;;;;11.82;6.35;;;1.40;99.90;;;;;;5060959;28;20591;-70
2021/12/09 02:57:15;;;;;;;12.50;6.72;;;1.30;99.90;;;;;;5060542;28;20052;-70
2021/12/09 02:59:41;;;;;;;13.35;7.43;;;1.20;99.90;;;;;;5057632;28;20087;-70
2021/12/09 03:02:09;;;;;;;12.57;7.55;;;1.20;99.90;;;;;;5058560;28;20070;-70
2021/12/09 03:04:37;;;;;;;17.00;8.05;;;1.10;99.90;;;;;;5052181;28;20179;-70
2021/12/09 03:07:10;;;;;;;12.80;6.50;;;1.10;99.90;;;;;;5088050;28;20045;-70
2021/12/09 03:09:36;;;;;;;14.05;7.47;;;1.00;99.90;;;;;;5050714;28;20077;-70
2021/12/09 03:12:05;;;;;;;11.88;6.60;;;1.10;99.90;;;;;;5043722;28;20136;-70
2021/12/09 03:14:31;;;;;;;20.48;7.43;;;1.10;99.90;;;;;;5044996;28;20052;-70
2021/12/09 03:16:57;;;;;;;14.45;7.35;;;1.10;99.90;;;;;;5042229;28;20575;-70
2021/12/09 03:19:22;;;;;;;14.15;7.57;;;1.10;99.90;;;;;;5044477;28;20091;-70
2021/12/09 03:21:48;;;;;;;14.00;7.00;;;1.10;99.90;;;;;;5058169;28;20044;-70
2021/12/09 03:24:18;;;;;;;14.23;7.22;;;1.10;99.90;;;;;;5060875;28;20052;-70
2021/12/09 03:26:54;;;;;;;14.85;7.68;;;1.10;99.90;;;;;;5041603;28;20052;-70
2021/12/09 03:29:21;;;;;;;12.85;6.90;;;1.10;99.90;;;;;;5060245;28;20566;-70
2021/12/09 03:31:49;;;;;;;11.43;7.10;;;1.10;99.90;;;;;;5054895;28;20041;-70
2021/12/09 03:34:17;;;;;;;11.38;7.00;;;1.10;99.90;;;;;;5057898;28;20029;-70
2021/12/09 03:36:43;;;;;;;13.40;7.18;;;1.10;99.90;;;;;;5094652;28;20295;-70
2021/12/09 03:39:17;;;;;;;11.35;6.40;;;1.10;99.90;;;;;;5057809;28;20043;-70
2021/12/09 03:41:49;;;;;;;10.55;7.03;;;1.10;99.90;;;;;;5060293;28;20039;-70
2021/12/09 03:44:16;;;;;;;15.93;7.05;;;1.10;99.90;;;;;;5060483;28;20048;-70
2021/12/09 03:46:42;;;;;;;13.50;7.50;;;1.10;99.90;;;;;;5059140;28;20048;-70
2021/12/09 03:49:08;;;;;;;14.30;8.02;;;1.10;99.90;;;;;;5060937;28;20109;-70
2021/12/09 03:51:35;;;;;;;13.80;7.25;;;1.10;99.90;;;;;;5056687;28;20076;-70
2021/12/09 03:54:06;;;;;;;14.70;7.25;;;1.10;99.90;;;;;;5060392;28;20041;-70
2021/12/09 03:56:33;;;;;;;11.85;6.72;;;2.00;99.90;;;;;;5057068;28;20140;-70
2021/12/09 03:58:59;;;;;;;17.70;7.43;;;1.20;99.90;;;;;;5092710;28;20587;-70
2021/12/09 04:01:25;;;;;;;16.58;8.63;;;1.20;99.90;;;;;;5059382;28;20063;-70
2021/12/09 04:03:51;;;;;;;15.52;7.78;;;1.10;99.90;;;;;;5041441;28;20053;-70
2021/12/09 04:06:17;;;;;;;16.88;8.23;;;1.10;99.90;;;;;;5027445;28;20060;-70
2021/12/09 04:08:43;;;;;;;13.68;7.45;;;1.10;99.90;;;;;;5057738;28;20037;-70
2021/12/09 04:11:10;;;;;;;16.17;8.02;;;1.10;99.90;;;;;;5060801;28;20059;-70
2021/12/09 04:13:38;;;;;;;12.60;7.47;;;1.10;99.90;;;;;;5057773;28;20056;-70
2021/12/09 04:16:08;;;;;;;16.33;8.60;;;1.10;99.90;;;;;;5093773;28;20068;-70
2021/12/09 04:18:35;;;;;;;18.55;8.20;;;1.10;99.90;;;;;;5083846;28;20068;-70
2021/12/09 04:21:01;;;;;;;15.43;8.27;;;1.00;99.90;;;;;;5057844;28;20041;-70
2021/12/09 04:23:27;;;;;;;17.20;7.90;;;1.10;99.90;;;;;;5061358;28;20405;-70
2021/12/09 04:25:53;;;;;;;14.27;8.02;;;1.00;99.90;;;;;;5057797;28;20045;-71
2021/12/09 04:28:19;;;;;;;15.07;8.05;;;1.00;99.90;;;;;;5042861;28;20043;-70
2021/12/09 04:30:45;;;;;;;10.73;7.35;;;1.00;99.90;;;;;;5057920;28;20057;-70
2021/12/09 04:33:11;;;;;;;17.63;8.35;;;0.90;99.90;;;;;;5078221;28;20059;-70
2021/12/09 04:35:37;;;;;;;18.20;8.55;;;0.90;99.90;;;;;;5042487;28;20507;-70
2021/12/09 04:38:03;;;;;;;18.73;8.32;;;0.80;99.90;;;;;;5056979;28;20037;-70
2021/12/09 04:40:29;;;;;;;15.32;8.75;;;0.80;99.90;;;;;;5043116;28;20045;-70
2021/12/09 04:42:54;;;;;;;13.52;8.60;;;0.70;99.90;;;;;;5090652;28;20053;-70
2021/12/09 04:45:21;;;;;;;16.08;8.93;;;0.70;99.90;;;;;;5059766;28;20052;-70
2021/12/09 04:47:46;;;;;;;17.25;8.45;;;0.70;99.90;;;;;;5058300;28;20048;-70
2021/12/09 04:50:12;;;;;;;15.40;8.80;;;0.60;99.90;;;;;;5076917;28;20137;-70
2021/12/09 04:52:39;;;;;;;15.32;8.75;;;0.60;99.90;;;;;;5049320;28;20080;-70
2021/12/09 04:55:07;;;;;;;17.27;8.75;;;0.60;99.90;;;;;;5057783;28;20044;-71
2021/12/09 04:57:34;;;;;;;19.55;9.93;;;0.60;99.90;;;;;;5059069;28;20052;-70
2021/12/09 05:00:01;;;;;;;13.00;8.02;;;0.70;99.90;;;;;;5023637;28;20539;-70
2021/12/09 05:05:12;;;;;;;15.68;9.15;;;0.70;99.90;;;;;;5085678;28;20496;-70
2021/12/09 05:07:37;;;;;;;17.40;9.25;;;0.60;99.90;;;;;;5057522;28;20059;-70
2021/12/09 05:10:05;;;;;;;18.05;9.48;;;0.60;99.90;;;;;;5042441;28;20045;-70
2021/12/09 05:12:31;;;;;;;16.42;8.23;;;0.60;99.90;;;;;;5031842;28;20072;-70
2021/12/09 05:14:56;;;;;;;14.32;8.13;;;0.60;99.90;;;;;;5093022;28;20121;-71
2021/12/09 05:17:22;;;;;;;14.98;8.43;;;0.60;99.90;;;;;;5040267;28;20101;-70
2021/12/09 05:19:48;;;;;;;18.77;9.45;;;0.50;99.90;;;;;;5041023;28;20041;-70
2021/12/09 05:22:14;;;;;;;16.85;9.10;;;0.50;99.90;;;;;;5054786;28;20041;-70
2021/12/09 05:24:40;;;;;;;21.95;9.40;;;0.50;99.90;;;;;;5056570;28;20128;-70
2021/12/09 05:27:08;;;;;;;16.95;10.63;;;0.50;99.90;;;;;;5055453;28;20053;-70
2021/12/09 05:29:39;;;;;;;15.27;9.73;;;0.70;99.90;;;;;;5039461;28;20134;-71
2021/12/09 05:32:08;;;;;;;15.00;9.13;;;0.60;99.90;;;;;;5050218;28;20120;-71
2021/12/09 05:34:45;;;;;;;20.48;9.25;;;0.60;99.90;;;;;;5053191;28;20045;-71
2021/12/09 05:37:15;;;;;;;17.48;8.88;;;0.60;99.90;;;;;;5058758;28;20043;-71
2021/12/09 05:39:41;;;;;;;17.10;10.02;;;0.60;99.90;;;;;;5040911;28;20056;-70
2021/12/09 05:42:09;;;;;;;20.65;11.00;;;0.60;99.90;;;;;;5057299;28;20049;-71
2021/12/09 05:44:35;;;;;;;15.85;9.27;;;0.60;99.90;;;;;;5058836;28;20052;-71
2021/12/09 05:47:02;;;;;;;18.13;9.63;;;0.60;99.90;;;;;;5056127;28;20091;-71
2021/12/09 05:49:29;;;;;;;19.15;10.35;;;0.60;99.90;;;;;;5058508;28;20047;-71
2021/12/09 05:51:55;;;;;;;19.08;10.75;;;0.60;99.90;;;;;;5050228;28;20045;-70
2021/12/09 05:54:21;;;;;;;19.17;10.27;;;0.70;99.90;;;;;;5041558;28;20041;-70
2021/12/09 05:56:47;;;;;;;16.63;10.30;;;0.70;99.90;;;;;;5056570;28;20055;-70
2021/12/09 05:59:13;;;;;;;16.80;9.73;;;0.70;99.90;;;;;;5040576;28;20061;-71
2021/12/09 06:01:40;;;;;;;24.55;10.20;;;0.70;99.90;;;;;;5058241;28;20049;-70
2021/12/09 06:04:07;;;;;;;21.00;10.10;;;0.70;99.90;;;;;;5038555;28;20057;-71
2021/12/09 06:06:34;;;;;;;16.80;10.55;;;0.70;99.90;;;;;;5058745;28;20088;-71
2021/12/09 06:09:00;;;;;;;21.42;10.75;;;0.80;99.90;;;;;;5055308;28;20043;-71
2021/12/09 06:11:27;;;;;;;20.88;11.07;;;0.70;99.90;;;;;;5058410;28;20045;-70
2021/12/09 06:13:53;;;;;;;26.85;11.10;;;0.70;99.90;;;;;;5050745;28;20037;-71
2021/12/09 06:16:19;;;;;;;15.43;9.57;;;0.70;99.90;;;;;;5058516;28;20052;-71
2021/12/09 06:18:45;;;;;;;20.73;9.93;;;0.70;99.90;;;;;;5058012;28;20037;-71
2021/12/09 06:21:11;;;;;;;21.33;10.43;;;0.70;99.90;;;;;;5088374;28;20053;-71
2021/12/09 06:23:37;;;;;;;18.50;9.43;;;0.70;99.90;;;;;;5041958;28;20045;-71
2021/12/09 06:26:06;;;;;;;21.83;10.13;;;0.70;99.90;;;;;;5039230;28;20053;-71
2021/12/09 06:28:32;;;;;;;18.08;10.50;;;0.70;99.90;;;;;;5024647;28;20266;-71
2021/12/09 06:30:58;;;;;;;22.85;10.65;;;0.70;99.90;;;;;;5055339;28;20411;-70
2021/12/09 06:33:24;;;;;;;22.48;10.65;;;0.70;99.90;;;;;;5038026;28;20080;-71
2021/12/09 06:35:50;;;;;;;17.80;9.35;;;0.70;99.90;;;;;;5054917;28;20136;-70
2021/12/09 06:38:16;;;;;;;18.75;9.73;;;0.70;99.90;;;;;;5053611;28;20109;-71
2021/12/09 06:40:44;;;;;;;16.70;9.55;;;0.70;99.90;;;;;;5057934;28;20132;-71
2021/12/09 06:43:10;;;;;;;15.82;9.63;;;0.70;99.90;;;;;;5055271;28;20091;-71
2021/12/09 06:45:36;;;;;;;19.65;11.23;;;0.70;99.90;;;;;;5041194;28;20519;-71
2021/12/09 06:48:02;;;;;;;16.67;10.27;;;0.60;99.90;;;;;;5039705;28;20065;-71
2021/12/09 06:50:28;;;;;;;21.05;10.80;;;0.70;99.90;;;;;;5057220;28;20053;-71
2021/12/09 06:52:54;;;;;;;22.20;11.13;;;0.60;99.90;;;;;;5040062;28;20385;-71
2021/12/09 06:55:20;;;;;;;14.95;9.15;;;0.60;99.90;;;;;;5022329;28;20056;-71
2021/12/09 06:57:47;;;;;;;20.95;11.25;;;0.70;99.90;;;;;;5040787;28;20122;-71
2021/12/09 07:00:46;;;;;;;18.98;10.27;;;0.60;99.90;;;;;;5054708;28;20044;-71
2021/12/09 07:03:13;;;;;;;20.10;9.70;;;0.60;99.90;;;;;;5066805;28;20061;-71
2021/12/09 07:05:39;;;;;;;16.52;9.98;;;0.60;99.90;;;;;;5040676;28;20041;-71
2021/12/09 07:08:05;;;;;;;19.75;10.23;;;0.60;99.90;;;;;;5088460;28;20048;-71
2021/12/09 07:10:32;;;;;;;16.40;9.75;;;0.60;99.90;;;;;;5057705;28;20083;-71
2021/12/09 07:12:58;;;;;;;21.52;9.88;;;0.70;99.90;;;;;;5038244;28;20059;-72
2021/12/09 07:15:24;;;;;;;20.13;9.85;;;0.70;99.90;;;;;;5058339;28;20072;-71
2021/12/09 07:17:50;;;;;;;18.50;9.38;;;0.70;99.90;;;;;;5038676;28;20088;-71
2021/12/09 07:20:19;;;;;;;22.80;10.93;;;0.70;99.90;;;;;;5041108;28;20053;-71
2021/12/09 07:22:48;;;;;;;19.10;9.65;;;0.60;99.90;;;;;;5056709;28;20056;-71
2021/12/09 07:25:14;;;;;;;20.60;10.45;;;0.60;99.90;;;;;;5055408;28;20100;-71
2021/12/09 07:27:40;;;;;;;19.30;10.05;;;0.60;99.90;;;;;;5040712;28;20109;-72
2021/12/09 07:30:08;;;;;;;17.85;9.80;;;0.60;99.90;;;;;;5056913;28;20041;-72
2021/12/09 07:32:34;;;;;;;17.60;10.38;;;0.60;99.90;;;;;;5052261;28;20556;-71
2021/12/09 07:35:01;;;;;;;18.40;11.05;;;0.50;99.90;;;;;;5092197;28;20124;-72
2021/12/09 07:37:27;;;;;;;18.83;9.95;;;0.60;99.90;;;;;;5049417;28;20052;-71
2021/12/09 07:39:52;;;;;;;19.55;9.90;;;0.50;99.90;;;;;;5057576;28;20074;-71
2021/12/09 07:42:18;;;;;;;18.88;10.38;;;0.50;99.90;;;;;;5059089;28;20072;-71
2021/12/09 07:44:45;;;;;;;22.27;10.93;;;0.50;99.90;;;;;;5060673;28;20049;-71
2021/12/09 07:47:10;;;;;;;16.30;10.48;;;0.50;99.90;;;;;;5072467;28;20469;-72
2021/12/09 07:49:36;;;;;;;19.25;9.48;;;0.50;99.90;;;;;;5061080;28;20078;-71
2021/12/09 07:52:04;;;;;;;15.77;9.93;;;0.50;99.90;;;;;;5054798;28;20104;-71
2021/12/09 07:54:30;;;;;;;24.02;10.48;;;0.50;99.90;;;;;;5043851;28;20044;-71
2021/12/09 07:56:56;;;;;;;18.42;9.35;;;0.50;99.90;;;;;;5059947;28;20105;-72
2021/12/09 07:59:22;;;;;;;16.80;8.85;;;0.50;99.90;;;;;;5058894;28;20068;-72
2021/12/09 08:01:48;;;;;;;19.30;9.02;;;0.50;99.90;;;;;;5062184;28;20048;-72
2021/12/09 08:04:15;;;;;;;24.75;11.77;;;0.60;99.90;;;;;;5040924;28;20052;-72
2021/12/09 08:06:41;;;;;;;17.38;9.18;;;0.60;99.90;;;;;;5093922;28;20045;-72
2021/12/09 08:09:08;;;;;;;16.58;8.77;;;0.60;99.90;;;;;;5057577;28;20083;-72
2021/12/09 08:11:38;;;;;;;19.08;10.00;;;0.70;99.90;;;;;;5093974;28;20056;-72
2021/12/09 08:14:05;;;;;;;20.70;11.15;;;0.70;99.90;;;;;;5076453;28;20045;-72
2021/12/09 08:16:37;;;;;;;23.70;12.52;;;0.70;99.90;;;;;;5038665;28;20079;-72
2021/12/09 08:19:04;;;;;;;20.15;10.57;;;0.70;99.90;;;;;;5075456;28;20041;-72
2021/12/09 08:21:33;;;;;;;18.80;9.20;;;0.80;99.90;;;;;;5024507;28;20041;-72
2021/12/09 08:23:59;;;;;;;15.40;8.75;;;0.80;99.90;;;;;;5044634;28;20088;-72
2021/12/09 08:26:26;;;;;;;15.30;8.95;;;0.80;99.90;;;;;;5020907;28;20049;-72
2021/12/09 08:28:52;;;;;;;19.17;10.93;;;0.80;99.90;;;;;;5055512;28;20042;-72
2021/12/09 08:31:18;;;;;;;19.10;9.02;;;0.80;99.90;;;;;;5069956;28;20041;-72
2021/12/09 08:33:43;;;;;;;18.98;9.82;;;0.90;99.90;;;;;;5013341;28;20050;-72
2021/12/09 08:36:10;;;;;;;18.48;8.75;;;0.90;99.90;;;;;;5038420;28;20073;-72
2021/12/09 08:38:36;;;;;;;14.15;8.57;;;1.00;99.90;;;;;;5064628;28;20037;-72
2021/12/09 08:41:02;;;;;;;17.80;9.27;;;1.00;99.90;;;;;;5036280;28;20092;-72
2021/12/09 08:43:29;;;;;;;15.80;8.57;;;1.00;99.90;;;;;;5033501;28;20120;-72
2021/12/09 08:45:55;;;;;;;21.95;8.85;;;1.30;99.90;;;;;;5026659;28;20481;-72
2021/12/09 08:48:24;;;;;;;18.13;8.48;;;1.10;99.90;;;;;;5026519;28;20576;-72
2021/12/09 08:50:50;;;;;;;16.42;8.32;;;1.20;99.90;;;;;;5033733;28;20076;-72
2021/12/09 08:53:19;;;;;;;17.50;8.43;;;1.20;99.90;;;;;;5039738;28;20129;-72
2021/12/09 08:55:45;;;;;;;18.00;8.25;;;1.60;99.90;;;;;;5014123;28;20038;-72
2021/12/09 08:58:12;;;;;;;14.68;8.00;;;1.30;99.90;;;;;;5020016;28;20092;-72
2021/12/09 09:00:39;;;;;;;26.20;8.65;;;1.30;99.90;;;;;;5040882;28;20501;-71
2021/12/09 09:03:05;;;;;;;17.23;7.53;;;1.40;99.90;;;;;;5035380;28;20053;-71
2021/12/09 09:05:32;;;;;;;18.60;9.15;;;1.70;99.90;;;;;;5023700;28;20034;-71
2021/12/09 09:07:59;;;;;;;17.67;8.35;;;1.50;99.90;;;;;;5017172;28;20056;-71
2021/12/09 09:10:27;;;;;;;15.98;8.07;;;1.50;99.90;;;;;;5037790;28;20037;-70
2021/12/09 09:12:53;;;;;;;15.55;7.68;;;1.60;99.90;;;;;;5036955;28;20056;-70
2021/12/09 09:15:23;;;;;;;15.13;8.25;;;1.60;99.90;;;;;;5040570;28;20037;-71
2021/12/09 09:17:50;;;;;;;16.08;7.82;;;1.90;99.90;;;;;;5037016;28;20033;-71
2021/12/09 09:20:18;;;;;;;20.33;6.97;;;1.70;99.90;;;;;;5040099;28;20038;-71
2021/12/09 09:22:44;;;;;;;13.75;7.47;;;1.70;99.90;;;;;;5055140;28;20044;-71
2021/12/09 09:25:17;;;;;;;15.52;7.93;;;1.70;99.90;;;;;;5037378;28;20042;-71
2021/12/09 09:27:46;;;;;;;14.05;7.32;;;1.80;99.90;;;;;;5052496;28;20056;-71
2021/12/09 09:30:17;;;;;;;18.95;7.93;;;1.80;99.90;;;;;;5052272;28;20047;-71
2021/12/09 09:32:48;;;;;;;14.30;7.45;;;1.90;99.90;;;;;;5037920;28;20099;-71
2021/12/09 09:35:15;;;;;;;14.93;7.65;;;1.90;99.90;;;;;;5054091;28;20059;-71
2021/12/09 09:37:40;;;;;;;18.02;6.80;;;2.00;99.90;;;;;;5019832;28;20049;-71
2021/12/09 09:40:10;;;;;;;11.60;6.53;;;2.00;99.90;;;;;;5034433;28;20053;-71
2021/12/09 09:45:11;;;;;;;9.05;5.78;;;2.10;99.90;;;;;;5035949;28;20050;-70
2021/12/09 09:47:37;;;;;;;13.25;6.50;;;2.10;99.90;;;;;;5049955;28;20129;-71
2021/12/09 09:50:07;;;;;;;11.93;6.18;;;2.20;99.90;;;;;;5035436;28;20034;-71
2021/12/09 09:52:32;;;;;;;10.48;5.80;;;2.30;99.90;;;;;;5073492;28;20075;-70
2021/12/09 09:55:00;;;;;;;10.10;5.82;;;2.70;99.90;;;;;;5039183;28;20064;-71
2021/12/09 09:57:27;;;;;;;13.13;5.22;;;2.50;99.90;;;;;;5059431;28;20072;-71
2021/12/09 09:59:53;;;;;;;10.80;5.97;;;2.60;99.90;;;;;;5055536;28;20040;-71
2021/12/09 10:02:19;;;;;;;15.40;6.03;;;2.80;99.90;;;;;;5058316;28;20114;-71
2021/12/09 10:07:32;;;;;;;12.50;5.55;;;3.10;99.90;;;;;;5091885;28;20045;-71
2021/12/09 10:09:58;;;;;;;9.63;5.00;;;3.40;99.90;;;;;;5058837;28;20049;-71
2021/12/09 10:12:24;;;;;;;11.80;5.70;;;3.60;99.90;;;;;;5056219;28;20049;-71
2021/12/09 10:14:52;;;;;;;10.45;5.07;;;3.90;99.90;;;;;;5058890;28;20084;-70
2021/12/09 10:17:23;;;;;;;13.35;5.80;;;4.10;99.90;;;;;;5038801;28;20523;-71
2021/12/09 10:19:55;;;;;;;9.90;5.18;;;4.30;99.90;;;;;;5092099;28;20103;-70
2021/12/09 10:22:35;;;;;;;10.13;4.82;;;4.50;99.90;;;;;;5058037;28;20048;-71
2021/12/09 10:25:14;;;;;;;10.60;4.57;;;4.70;99.90;;;;;;5058069;28;20041;-71
2021/12/09 10:27:44;;;;;;;11.10;5.50;;;4.90;99.90;;;;;;5058170;28;20124;-72
2021/12/09 10:30:15;;;;;;;8.35;3.92;;;5.10;99.90;;;;;;5082128;28;20053;-71
2021/12/09 10:32:43;;;;;;;8.00;4.63;;;5.30;99.90;;;;;;5036902;28;20584;-71
2021/12/09 10:35:18;;;;;;;11.00;5.03;;;5.50;99.90;;;;;;5037276;28;20111;-71
2021/12/09 10:37:51;;;;;;;7.55;4.30;;;5.40;99.90;;;;;;5020615;28;20061;-71
2021/12/09 10:40:23;;;;;;;9.15;4.38;;;5.30;99.90;;;;;;5038597;28;20053;-71
2021/12/09 10:42:52;;;;;;;8.43;4.55;;;5.20;99.90;;;;;;5050961;28;20596;-71
2021/12/09 10:45:28;;;;;;;9.98;4.70;;;5.30;99.90;;;;;;5038464;28;20064;-72
2021/12/09 10:48:03;;;;;;;;;;;5.20;99.90;;;;;;5035921;28;20053;-69
2021/12/09 10:50:45;;;;;;;9.38;4.85;;;4.90;99.90;;;;;;5037547;28;19971;-70
2021/12/09 10:55:52;;;;;;;10.50;5.15;;;4.20;99.90;;;;;;5035681;28;20045;-71
2021/12/09 10:58:25;;;;;;;13.02;5.93;;;3.90;99.90;;;;;;5037873;28;20042;-70
2021/12/09 11:01:01;;;;;;;14.90;5.53;;;3.70;99.90;;;;;;5052805;28;20855;-71
2021/12/09 11:03:35;;;;;;;11.30;4.95;;;3.60;99.90;;;;;;5038099;28;20061;-71
2021/12/09 11:06:07;;;;;;;14.00;6.93;;;3.50;99.90;;;;;;5038873;28;20417;-71
2021/12/09 11:08:36;;;;;;;10.20;5.75;;;3.40;99.90;;;;;;5055850;28;20042;-71
2021/12/09 11:11:06;;;;;;;10.05;5.97;;;3.30;99.90;;;;;;5025772;28;20053;-71
2021/12/09 11:13:54;;;;;;;12.10;5.60;;;3.30;99.90;;;;;;5041656;28;20051;-71
2021/12/09 11:16:32;;;;;;;17.00;6.47;;;3.30;99.90;;;;;;5040182;28;20096;-71
2021/12/09 11:19:08;;;;;;;14.95;6.13;;;3.20;99.90;;;;;;5025217;28;20631;-71
2021/12/09 11:21:39;;;;;;;11.93;5.82;;;3.30;99.90;;;;;;5072292;28;20079;-71
2021/12/09 11:24:11;;;;;;;13.55;6.40;;;3.20;99.90;;;;;;5042064;28;20052;-71
2021/12/09 11:26:57;;;;;;;13.35;6.68;;;3.10;99.90;;;;;;5059729;28;20052;-71
2021/12/09 11:29:27;;;;;;;16.65;8.43;;;3.10;99.90;;;;;;5059151;28;20166;-71
2021/12/09 11:35:10;;;;;;;14.82;7.00;;;3.20;99.90;;;;;;5072426;28;20061;-70
2021/12/09 11:40:16;;;;;;;11.05;7.50;;;3.30;99.90;;;;;;5074496;28;20050;-71
2021/12/09 11:42:49;;;;;;;16.05;7.22;;;3.40;99.90;;;;;;5039166;28;20055;-71
2021/12/09 11:45:18;;;;;;;15.95;7.38;;;3.40;99.90;;;;;;5042688;28;20041;-71
2021/12/09 11:47:47;;;;;;;14.00;6.20;;;3.40;99.90;;;;;;5022989;28;20045;-71
2021/12/09 11:50:17;;;;;;;18.73;8.65;;;3.40;99.90;;;;;;5042078;28;20049;-71
2021/12/09 11:52:45;;;;;;;9.88;6.20;;;3.30;99.90;;;;;;5074341;28;20049;-71
2021/12/09 11:55:18;;;;;;;15.20;7.10;;;3.30;99.90;;;;;;5038927;28;20103;-71
2021/12/09 11:57:50;;;;;;;12.10;6.90;;;3.50;99.90;;;;;;5041971;28;20049;-71
2021/12/09 12:14:58;;;;;;;13.98;8.45;;;3.20;99.90;;;;;;5022953;28;20105;-70
2021/12/09 12:17:35;;;;;;;13.13;7.18;;;3.20;99.90;;;;;;5068057;28;20054;-70
2021/12/09 12:25:47;;;;;;;15.75;7.43;;;3.20;99.90;;;;;;5067725;28;20060;-70
2021/12/09 12:39:58;;;;;;;14.45;7.28;;;3.30;99.90;;;;;;5037241;28;20053;-71
2021/12/09 12:42:36;;;;;;;15.02;7.72;;;3.50;99.90;;;;;;5038020;28;20045;-71
2021/12/09 12:45:37;;;;;;;14.93;7.43;;;3.30;99.90;;;;;;5056789;28;20045;-71
2021/12/09 12:52:07;;;;;;;17.92;7.43;;;3.30;99.90;;;;;;5037202;28;20045;-70
2021/12/09 12:54:18;;;;;;;16.73;6.93;;;3.30;99.90;;;;;;5036747;28;20433;-70
2021/12/09 12:56:47;;;;;;;17.48;8.20;;;3.60;99.90;;;;;;5040003;28;20697;-69
2021/12/09 12:59:14;;;;;;;17.90;7.57;;;3.30;99.90;;;;;;5035682;28;20041;-70
2021/12/09 13:01:48;;;;;;;13.90;7.45;;;3.40;99.90;;;;;;5022345;28;20044;-71
2021/12/09 13:10:23;;;;;;;14.23;7.53;;;3.30;99.90;;;;;;5072618;28;20059;-70
2021/12/09 13:13:07;;;;;;;18.77;8.75;;;3.30;99.90;;;;;;5036693;28;20109;-70
2021/12/09 13:15:48;;;;;;;14.90;7.65;;;3.30;99.90;;;;;;5039400;28;20046;-71
2021/12/09 13:18:47;;;;;;;16.00;7.93;;;3.30;99.90;;;;;;5022300;28;20045;-71
2021/12/09 13:21:52;;;;;;;15.25;7.75;;;3.30;99.90;;;;;;5021682;28;20053;-71
2021/12/09 13:24:52;;;;;;;18.92;7.80;;;3.30;99.90;;;;;;5022699;28;20053;-71
2021/12/09 13:49:56;;;;;;;16.10;7.93;;;3.60;99.90;;;;;;5055979;28;20113;-71
2021/12/09 13:55:29;;;;;;;18.55;8.05;;;3.60;99.90;;;;;;5038020;28;20079;-71
2021/12/09 13:57:59;;;;;;;26.33;9.40;;;3.60;99.90;;;;;;5038321;28;20053;-71
2021/12/09 14:00:25;;;;;;;17.95;10.40;;;4.00;99.90;;;;;;5068934;28;20087;-73
2021/12/09 14:03:03;;;;;;;18.02;8.65;;;3.70;99.90;;;;;;5035072;28;20053;-71
2021/12/09 14:06:00;;;;;;;19.77;8.77;;;3.70;99.90;;;;;;5037804;28;20049;-72
2021/12/09 14:08:52;;;;;;;15.95;9.45;;;3.70;99.90;;;;;;5036172;28;20084;-72
2021/12/09 14:14:19;;;;;;;17.13;9.45;;;3.70;99.90;;;;;;5037258;28;20061;-72
2021/12/09 14:22:25;;;;;;;15.07;8.50;;;3.70;99.90;;;;;;5038269;28;20053;-71
2021/12/09 14:24:52;;;;;;;18.80;9.07;;;3.80;99.90;;;;;;5069722;28;20106;-72